sensor_id;sensor_type;location;lat;lon;timestamp;pressure;altitude;pressure_sealevel;temperature;humidity
65614;BME280;52283;49.292;10.572;2023-04-01T00:00:47;95050.22;;;8.03;100.00
65614;BME280;52283;49.292;10.572;2023-04-01T00:03:13;95042.72;;;7.92;100.00
65614;BME280;52283;49.292;10.572;2023-04-01T00:05:40;95037.81;;;8.04;100.00
65614;BME280;52283;49.292;10.572;2023-04-01T00:08:08;95042.47;;;7.90;100.00
65614;BME280;52283;49.292;10.572;2023-04-01T00:10:34;95029.66;;;7.81;100.00
65614;BME280;52283;49.292;10.572;2023-04-01T00:13:01;95037.50;;;7.83;100.00
65614;BME280;52283;49.292;10.572;2023-04-01T00:15:27;95025.84;;;7.84;100.00
65614;BME280;52283;49.292;10.572;2023-04-01T00:17:54;95029.91;;;7.83;100.00
65614;BME280;52283;49.292;10.572;2023-04-01T00:20:20;95032.63;;;7.89;100.00
65614;BME280;52283;49.292;10.572;2023-04-01T00:22:47;95034.13;;;7.90;100.00
65614;BME280;52283;49.292;10.572;2023-04-01T00:25:15;95030.72;;;7.78;100.00
65614;BME280;52283;49.292;10.572;2023-04-01T00:27:42;95035.00;;;7.79;100.00
65614;BME280;52283;49.292;10.572;2023-04-01T00:30:09;95038.00;;;7.81;100.00
65614;BME280;52283;49.292;10.572;2023-04-01T00:32:36;95038.78;;;7.82;100.00
65614;BME280;52283;49.292;10.572;2023-04-01T00:35:03;95045.50;;;7.92;100.00
65614;BME280;52283;49.292;10.572;2023-04-01T00:37:30;95049.09;;;7.87;100.00
65614;BME280;52283;49.292;10.572;2023-04-01T00:39:56;95045.25;;;7.90;100.00
65614;BME280;52283;49.292;10.572;2023-04-01T00:42:24;95042.44;;;7.95;100.00
65614;BME280;52283;49.292;10.572;2023-04-01T00:44:52;95040.13;;;8.00;100.00
65614;BME280;52283;49.292;10.572;2023-04-01T00:47:19;95037.63;;;7.96;100.00
65614;BME280;52283;49.292;10.572;2023-04-01T00:49:49;95040.88;;;8.00;100.00
65614;BME280;52283;49.292;10.572;2023-04-01T00:52:19;95042.38;;;8.01;100.00
65614;BME280;52283;49.292;10.572;2023-04-01T00:54:50;95048.00;;;7.95;100.00
65614;BME280;52283;49.292;10.572;2023-04-01T00:57:22;95042.91;;;8.00;100.00
65614;BME280;52283;49.292;10.572;2023-04-01T00:59:54;95036.81;;;8.01;100.00
65614;BME280;52283;49.292;10.572;2023-04-01T01:02:21;95035.31;;;8.00;100.00
65614;BME280;52283;49.292;10.572;2023-04-01T01:04:48;95037.00;;;8.09;100.00
65614;BME280;52283;49.292;10.572;2023-04-01T01:07:20;95037.75;;;8.09;100.00
65614;BME280;52283;49.292;10.572;2023-04-01T01:09:56;95028.81;;;7.92;100.00
65614;BME280;52283;49.292;10.572;2023-04-01T01:12:32;95035.78;;;8.04;100.00
65614;BME280;52283;49.292;10.572;2023-04-01T01:15:08;95033.50;;;8.03;100.00
65614;BME280;52283;49.292;10.572;2023-04-01T01:17:44;95041.84;;;8.03;100.00
65614;BME280;52283;49.292;10.572;2023-04-01T01:23:28;95042.56;;;8.09;100.00
65614;BME280;52283;49.292;10.572;2023-04-01T01:26:15;95044.81;;;8.10;100.00
65614;BME280;52283;49.292;10.572;2023-04-01T01:29:00;95032.81;;;7.97;100.00
65614;BME280;52283;49.292;10.572;2023-04-01T01:31:36;95048.69;;;8.02;100.00
65614;BME280;52283;49.292;10.572;2023-04-01T01:34:12;95025.84;;;8.09;100.00
65614;BME280;52283;49.292;10.572;2023-04-01T01:36:44;95021.88;;;8.04;100.00
65614;BME280;52283;49.292;10.572;2023-04-01T01:39:12;95025.69;;;8.01;100.00
65614;BME280;52283;49.292;10.572;2023-04-01T01:41:41;95013.59;;;7.99;100.00
65614;BME280;52283;49.292;10.572;2023-04-01T01:44:12;95021.34;;;8.06;100.00
65614;BME280;52283;49.292;10.572;2023-04-01T01:46:41;95012.41;;;7.88;100.00
65614;BME280;52283;49.292;10.572;2023-04-01T01:49:10;95011.66;;;7.88;100.00
65614;BME280;52283;49.292;10.572;2023-04-01T01:51:37;95022.16;;;8.01;100.00
65614;BME280;52283;49.292;10.572;2023-04-01T01:54:06;95012.69;;;8.09;100.00
65614;BME280;52283;49.292;10.572;2023-04-01T01:56:34;95016.38;;;7.99;100.00
65614;BME280;52283;49.292;10.572;2023-04-01T01:59:03;95017.69;;;7.92;100.00
65614;BME280;52283;49.292;10.572;2023-04-01T02:01:34;95022.31;;;8.08;100.00
65614;BME280;52283;49.292;10.572;2023-04-01T02:04:02;95017.69;;;7.92;100.00
65614;BME280;52283;49.292;10.572;2023-04-01T02:06:30;95026.75;;;7.98;100.00
65614;BME280;52283;49.292;10.572;2023-04-01T02:09:02;95018.19;;;7.90;100.00
65614;BME280;52283;49.292;10.572;2023-04-01T02:11:33;95012.41;;;7.88;100.00
65614;BME280;52283;49.292;10.572;2023-04-01T02:14:05;95026.03;;;7.92;100.00
65614;BME280;52283;49.292;10.572;2023-04-01T02:16:34;95022.78;;;7.88;100.00
65614;BME280;52283;49.292;10.572;2023-04-01T02:19:02;95017.97;;;7.88;100.00
65614;BME280;52283;49.292;10.572;2023-04-01T02:21:33;95020.47;;;7.92;100.00
65614;BME280;52283;49.292;10.572;2023-04-01T02:24:03;95027.03;;;7.94;100.00
65614;BME280;52283;49.292;10.572;2023-04-01T02:26:32;95020.47;;;7.92;100.00
65614;BME280;52283;49.292;10.572;2023-04-01T02:29:01;95019.22;;;7.93;100.00
65614;BME280;52283;49.292;10.572;2023-04-01T02:31:30;95026.50;;;7.96;100.00
65614;BME280;52283;49.292;10.572;2023-04-01T02:33:57;95018.53;;;7.81;100.00
65614;BME280;52283;49.292;10.572;2023-04-01T02:36:24;95025.22;;;7.97;100.00
65614;BME280;52283;49.292;10.572;2023-04-01T02:38:51;95018.44;;;7.92;100.00
65614;BME280;52283;49.292;10.572;2023-04-01T02:41:19;95026.53;;;7.90;100.00
65614;BME280;52283;49.292;10.572;2023-04-01T02:43:47;95030.34;;;7.93;100.00
65614;BME280;52283;49.292;10.572;2023-04-01T02:46:14;95028.53;;;7.95;100.00
65614;BME280;52283;49.292;10.572;2023-04-01T02:48:40;95030.03;;;7.97;100.00
65614;BME280;52283;49.292;10.572;2023-04-01T02:51:08;95028.63;;;7.84;100.00
65614;BME280;52283;49.292;10.572;2023-04-01T02:53:34;95036.66;;;7.93;100.00
65614;BME280;52283;49.292;10.572;2023-04-01T02:56:00;95026.75;;;7.98;100.00
65614;BME280;52283;49.292;10.572;2023-04-01T02:58:27;95031.41;;;7.84;100.00
65614;BME280;52283;49.292;10.572;2023-04-01T03:00:55;95025.75;;;7.95;100.00
65614;BME280;52283;49.292;10.572;2023-04-01T03:03:21;95030.59;;;7.89;100.00
65614;BME280;52283;49.292;10.572;2023-04-01T03:05:48;95038.84;;;8.01;100.00
65614;BME280;52283;49.292;10.572;2023-04-01T03:08:14;95035.69;;;7.85;100.00
65614;BME280;52283;49.292;10.572;2023-04-01T03:10:41;95029.81;;;7.94;100.00
65614;BME280;52283;49.292;10.572;2023-04-01T03:13:07;95031.19;;;7.82;100.00
65614;BME280;52283;49.292;10.572;2023-04-01T03:15:34;95029.97;;;7.78;100.00
65614;BME280;52283;49.292;10.572;2023-04-01T03:18:02;95036.34;;;7.73;100.00
65614;BME280;52283;49.292;10.572;2023-04-01T03:20:29;95025.72;;;7.71;100.00
65614;BME280;52283;49.292;10.572;2023-04-01T03:22:55;95042.53;;;7.84;100.00
65614;BME280;52283;49.292;10.572;2023-04-01T03:25:22;95034.88;;;7.90;100.00
65614;BME280;52283;49.292;10.572;2023-04-01T03:27:48;95051.16;;;7.81;100.00
65614;BME280;52283;49.292;10.572;2023-04-01T03:30:15;95047.69;;;7.75;100.00
65614;BME280;52283;49.292;10.572;2023-04-01T03:32:42;95041.78;;;7.54;100.00
65614;BME280;52283;49.292;10.572;2023-04-01T03:35:09;95052.94;;;7.48;100.00
65614;BME280;52283;49.292;10.572;2023-04-01T03:37:36;95038.53;;;7.50;100.00
65614;BME280;52283;49.292;10.572;2023-04-01T03:40:04;95042.84;;;7.45;100.00
65614;BME280;52283;49.292;10.572;2023-04-01T03:42:30;95042.91;;;7.40;100.00
65614;BME280;52283;49.292;10.572;2023-04-01T03:44:57;95043.31;;;7.55;100.00
65614;BME280;52283;49.292;10.572;2023-04-01T03:47:23;95046.09;;;7.49;100.00
65614;BME280;52283;49.292;10.572;2023-04-01T03:49:50;95054.53;;;7.38;100.00
65614;BME280;52283;49.292;10.572;2023-04-01T03:52:18;95045.63;;;7.45;100.00
65614;BME280;52283;49.292;10.572;2023-04-01T03:54:44;95045.84;;;7.53;100.00
65614;BME280;52283;49.292;10.572;2023-04-01T03:57:11;95044.41;;;7.41;100.00
65614;BME280;52283;49.292;10.572;2023-04-01T03:59:37;95042.38;;;7.41;100.00
65614;BME280;52283;49.292;10.572;2023-04-01T04:02:04;95031.38;;;7.30;100.00
65614;BME280;52283;49.292;10.572;2023-04-01T04:04:30;95037.41;;;7.34;100.00
65614;BME280;52283;49.292;10.572;2023-04-01T04:06:57;95042.66;;;7.38;100.00
65614;BME280;52283;49.292;10.572;2023-04-01T04:09:25;95050.19;;;7.43;100.00
65614;BME280;52283;49.292;10.572;2023-04-01T04:11:51;95047.91;;;7.47;100.00
65614;BME280;52283;49.292;10.572;2023-04-01T04:14:18;95047.13;;;7.46;100.00
65614;BME280;52283;49.292;10.572;2023-04-01T04:16:44;95044.69;;;7.37;100.00
65614;BME280;52283;49.292;10.572;2023-04-01T04:19:11;95051.94;;;7.51;100.00
65614;BME280;52283;49.292;10.572;2023-04-01T04:21:37;95048.94;;;7.44;100.00
65614;BME280;52283;49.292;10.572;2023-04-01T04:24:05;95053.72;;;7.43;100.00
65614;BME280;52283;49.292;10.572;2023-04-01T04:26:33;95049.41;;;7.48;100.00
65614;BME280;52283;49.292;10.572;2023-04-01T04:29:00;95046.66;;;7.42;100.00
65614;BME280;52283;49.292;10.572;2023-04-01T04:31:27;95050.66;;;7.47;100.00
65614;BME280;52283;49.292;10.572;2023-04-01T04:33:54;95048.66;;;7.47;100.00
65614;BME280;52283;49.292;10.572;2023-04-01T04:36:21;95050.66;;;7.47;100.00
65614;BME280;52283;49.292;10.572;2023-04-01T04:38:48;95055.41;;;7.57;100.00
65614;BME280;52283;49.292;10.572;2023-04-01T04:41:16;95064.19;;;7.31;100.00
65614;BME280;52283;49.292;10.572;2023-04-01T04:43:50;95072.13;;;7.52;100.00
65614;BME280;52283;49.292;10.572;2023-04-01T04:46:17;95057.31;;;7.38;100.00
65614;BME280;52283;49.292;10.572;2023-04-01T04:48:44;95058.63;;;7.31;100.00
65614;BME280;52283;49.292;10.572;2023-04-01T04:51:13;95056.66;;;7.21;100.00
65614;BME280;52283;49.292;10.572;2023-04-01T04:53:40;95063.72;;;7.22;100.00
65614;BME280;52283;49.292;10.572;2023-04-01T04:56:07;95063.19;;;7.29;100.00
65614;BME280;52283;49.292;10.572;2023-04-01T04:58:33;95068.47;;;7.32;100.00
65614;BME280;52283;49.292;10.572;2023-04-01T05:01:07;95069.22;;;7.33;100.00
65614;BME280;52283;49.292;10.572;2023-04-01T05:03:33;95058.41;;;7.29;100.00
65614;BME280;52283;49.292;10.572;2023-04-01T05:06:00;95059.16;;;7.24;100.00
65614;BME280;52283;49.292;10.572;2023-04-01T05:08:26;95054.38;;;7.25;100.00
65614;BME280;52283;49.292;10.572;2023-04-01T05:10:53;95055.44;;;7.16;100.00
65614;BME280;52283;49.292;10.572;2023-04-01T05:13:20;95064.25;;;7.20;100.00
65614;BME280;52283;49.292;10.572;2023-04-01T05:15:46;95065.00;;;7.21;100.00
65614;BME280;52283;49.292;10.572;2023-04-01T05:18:14;95068.78;;;7.23;100.00
65614;BME280;52283;49.292;10.572;2023-04-01T05:20:46;95061.19;;;7.24;100.00
65614;BME280;52283;49.292;10.572;2023-04-01T05:23:12;95066.50;;;7.22;100.00
65614;BME280;52283;49.292;10.572;2023-04-01T05:25:38;95074.41;;;7.12;100.00
65614;BME280;52283;49.292;10.572;2023-04-01T05:28:05;95052.84;;;7.24;100.00
65614;BME280;52283;49.292;10.572;2023-04-01T05:30:31;95052.94;;;7.13;100.00
65614;BME280;52283;49.292;10.572;2023-04-01T05:32:58;95053.41;;;7.17;100.00
65614;BME280;52283;49.292;10.572;2023-04-01T05:35:26;95062.22;;;7.21;100.00
65614;BME280;52283;49.292;10.572;2023-04-01T05:37:52;95056.59;;;7.32;100.00
65614;BME280;52283;49.292;10.572;2023-04-01T05:40:19;95065.25;;;7.23;100.00
65614;BME280;52283;49.292;10.572;2023-04-01T05:42:45;95061.28;;;7.13;100.00
65614;BME280;52283;49.292;10.572;2023-04-01T05:45:12;95057.97;;;7.14;100.00
65614;BME280;52283;49.292;10.572;2023-04-01T05:47:40;95052.84;;;7.24;100.00
65614;BME280;52283;49.292;10.572;2023-04-01T05:50:08;95058.69;;;7.20;100.00
65614;BME280;52283;49.292;10.572;2023-04-01T05:52:37;95058.41;;;7.29;100.00
65614;BME280;52283;49.292;10.572;2023-04-01T05:55:04;95058.19;;;7.22;100.00
65614;BME280;52283;49.292;10.572;2023-04-01T05:57:31;95057.66;;;7.29;100.00
65614;BME280;52283;49.292;10.572;2023-04-01T05:59:57;95061.41;;;7.31;100.00
65614;BME280;52283;49.292;10.572;2023-04-01T06:02:24;95064.19;;;7.31;100.00
65614;BME280;52283;49.292;10.572;2023-04-01T06:04:56;95060.44;;;7.29;100.00
65614;BME280;52283;49.292;10.572;2023-04-01T06:07:28;95070.47;;;7.38;100.00
65614;BME280;52283;49.292;10.572;2023-04-01T06:09:56;95071.91;;;7.50;100.00
65614;BME280;52283;49.292;10.572;2023-04-01T06:12:36;95069.69;;;7.37;100.00
65614;BME280;52283;49.292;10.572;2023-04-01T06:15:16;95073.66;;;7.47;100.00
65614;BME280;52283;49.292;10.572;2023-04-01T06:17:56;95060.28;;;7.46;100.00
65614;BME280;52283;49.292;10.572;2023-04-01T06:20:34;95063.97;;;7.59;100.00
65614;BME280;52283;49.292;10.572;2023-04-01T06:23:16;95070.38;;;7.49;100.00
65614;BME280;52283;49.292;10.572;2023-04-01T06:26:01;95060.63;;;7.67;100.00
65614;BME280;52283;49.292;10.572;2023-04-01T06:28:44;95056.81;;;7.70;100.00
65614;BME280;52283;49.292;10.572;2023-04-01T06:31:25;95052.56;;;7.63;100.00
65614;BME280;52283;49.292;10.572;2023-04-01T06:34:17;95056.50;;;7.79;100.00
65614;BME280;52283;49.292;10.572;2023-04-01T06:37:07;95061.16;;;7.95;100.00
65614;BME280;52283;49.292;10.572;2023-04-01T06:40:03;95059.44;;;7.86;100.00
65614;BME280;52283;49.292;10.572;2023-04-01T06:42:41;95055.69;;;7.84;100.00
65614;BME280;52283;49.292;10.572;2023-04-01T06:45:22;95056.38;;;8.20;100.00
65614;BME280;52283;49.292;10.572;2023-04-01T06:48:03;95050.31;;;7.91;100.00
65614;BME280;52283;49.292;10.572;2023-04-01T06:50:40;95048.03;;;7.90;100.00
65614;BME280;52283;49.292;10.572;2023-04-01T06:53:12;95047.03;;;7.93;100.00
65614;BME280;52283;49.292;10.572;2023-04-01T06:55:44;95038.91;;;7.95;100.00
65614;BME280;52283;49.292;10.572;2023-04-01T06:58:19;95031.66;;;8.11;100.00
65614;BME280;52283;49.292;10.572;2023-04-01T07:00:49;95046.88;;;8.34;100.00
65614;BME280;52283;49.292;10.572;2023-04-01T07:03:21;95035.66;;;8.64;100.00
65614;BME280;52283;49.292;10.572;2023-04-01T07:05:48;95036.88;;;8.20;100.00
65614;BME280;52283;49.292;10.572;2023-04-01T07:08:18;95041.81;;;8.57;100.00
65614;BME280;52283;49.292;10.572;2023-04-01T07:10:51;95031.72;;;8.30;100.00
65614;BME280;52283;49.292;10.572;2023-04-01T07:13:24;95035.84;;;8.23;100.00
65614;BME280;52283;49.292;10.572;2023-04-01T07:15:59;95047.13;;;8.31;100.00
65614;BME280;52283;49.292;10.572;2023-04-01T07:18:34;95046.28;;;8.41;100.00
65614;BME280;52283;49.292;10.572;2023-04-01T07:21:04;95048.03;;;8.44;100.00
65614;BME280;52283;49.292;10.572;2023-04-01T07:23:36;95054.22;;;8.56;100.00
65614;BME280;52283;49.292;10.572;2023-04-01T07:26:11;95039.59;;;8.50;100.00
65614;BME280;52283;49.292;10.572;2023-04-01T07:28:42;95040.34;;;8.75;100.00
65614;BME280;52283;49.292;10.572;2023-04-01T07:31:15;95036.66;;;8.85;100.00
65614;BME280;52283;49.292;10.572;2023-04-01T07:33:54;95046.91;;;8.96;100.00
65614;BME280;52283;49.292;10.572;2023-04-01T07:36:29;95036.66;;;8.85;100.00
65614;BME280;52283;49.292;10.572;2023-04-01T07:39:04;95051.19;;;8.78;100.00
65614;BME280;52283;49.292;10.572;2023-04-01T07:41:43;95043.94;;;8.89;100.00
65614;BME280;52283;49.292;10.572;2023-04-01T07:44:18;95053.88;;;8.65;100.00
65614;BME280;52283;49.292;10.572;2023-04-01T07:47:03;95034.53;;;8.73;100.00
65614;BME280;52283;49.292;10.572;2023-04-01T07:49:42;95072.53;;;8.70;100.00
65614;BME280;52283;49.292;10.572;2023-04-01T07:52:19;95067.84;;;8.60;100.00
65614;BME280;52283;49.292;10.572;2023-04-01T07:54:50;95050.22;;;8.51;100.00
65614;BME280;52283;49.292;10.572;2023-04-01T07:57:20;95061.38;;;8.70;100.00
65614;BME280;52283;49.292;10.572;2023-04-01T07:59:58;95066.81;;;8.63;100.00
65614;BME280;52283;49.292;10.572;2023-04-01T08:02:35;95055.47;;;8.79;100.00
65614;BME280;52283;49.292;10.572;2023-04-01T08:05:14;95068.50;;;8.90;100.00
65614;BME280;52283;49.292;10.572;2023-04-01T08:07:52;95075.16;;;8.63;100.00
65614;BME280;52283;49.292;10.572;2023-04-01T08:10:32;95072.16;;;8.61;100.00
65614;BME280;52283;49.292;10.572;2023-04-01T08:13:05;95065.25;;;8.86;100.00
65614;BME280;52283;49.292;10.572;2023-04-01T08:15:42;95066.72;;;8.68;100.00
65614;BME280;52283;49.292;10.572;2023-04-01T08:18:20;95069.41;;;8.79;100.00
65614;BME280;52283;49.292;10.572;2023-04-01T08:20:53;95079.03;;;8.78;100.00
65614;BME280;52283;49.292;10.572;2023-04-01T08:23:24;95067.44;;;8.93;100.00
65614;BME280;52283;49.292;10.572;2023-04-01T08:25:54;95069.25;;;8.91;100.00
65614;BME280;52283;49.292;10.572;2023-04-01T08:28:24;95078.34;;;8.91;100.00
65614;BME280;52283;49.292;10.572;2023-04-01T08:30:55;95085.31;;;9.03;100.00
65614;BME280;52283;49.292;10.572;2023-04-01T08:33:25;95073.19;;;9.01;100.00
65614;BME280;52283;49.292;10.572;2023-04-01T08:35:56;95070.00;;;9.10;100.00
65614;BME280;52283;49.292;10.572;2023-04-01T08:38:24;95081.38;;;8.93;100.00
65614;BME280;52283;49.292;10.572;2023-04-01T08:40:59;95065.84;;;8.79;100.00
65614;BME280;52283;49.292;10.572;2023-04-01T08:43:41;95076.94;;;8.84;100.00
65614;BME280;52283;49.292;10.572;2023-04-01T08:46:19;95080.69;;;8.87;100.00
65614;BME280;52283;49.292;10.572;2023-04-01T08:49:04;95068.72;;;8.92;100.00
65614;BME280;52283;49.292;10.572;2023-04-01T08:51:51;95065.56;;;8.82;100.00
65614;BME280;52283;49.292;10.572;2023-04-01T08:54:34;95060.34;;;8.73;100.00
65614;BME280;52283;49.292;10.572;2023-04-01T08:57:13;95072.78;;;8.91;100.00
65614;BME280;52283;49.292;10.572;2023-04-01T09:00:00;95084.97;;;8.88;100.00
65614;BME280;52283;49.292;10.572;2023-04-01T09:06:25;95090.06;;;8.65;100.00
65614;BME280;52283;49.292;10.572;2023-04-01T09:09:15;95091.91;;;8.81;100.00
65614;BME280;52283;49.292;10.572;2023-04-01T09:12:01;95097.06;;;8.72;100.00
65614;BME280;52283;49.292;10.572;2023-04-01T09:14:46;95099.84;;;8.72;100.00
65614;BME280;52283;49.292;10.572;2023-04-01T09:17:40;95089.00;;;8.68;100.00
65614;BME280;52283;49.292;10.572;2023-04-01T09:20:23;95096.69;;;8.62;100.00
65614;BME280;52283;49.292;10.572;2023-04-01T09:23:09;95090.88;;;8.60;100.00
65614;BME280;52283;49.292;10.572;2023-04-01T09:25:55;95069.28;;;8.17;100.00
65614;BME280;52283;49.292;10.572;2023-04-01T09:28:28;95089.09;;;8.33;100.00
65614;BME280;52283;49.292;10.572;2023-04-01T09:31:13;95099.09;;;8.22;100.00
65614;BME280;52283;49.292;10.572;2023-04-01T09:34:00;95082.97;;;8.15;100.00
65614;BME280;52283;49.292;10.572;2023-04-01T09:36:43;95081.72;;;8.11;100.00
65614;BME280;52283;49.292;10.572;2023-04-01T09:39:23;95092.38;;;8.12;100.00
65614;BME280;52283;49.292;10.572;2023-04-01T09:42:01;95100.75;;;8.07;100.00
65614;BME280;52283;49.292;10.572;2023-04-01T09:44:34;95091.69;;;8.01;100.00
65614;BME280;52283;49.292;10.572;2023-04-01T09:47:16;95102.69;;;8.17;100.00
65614;BME280;52283;49.292;10.572;2023-04-01T09:50:13;95086.66;;;7.99;100.00
65614;BME280;52283;49.292;10.572;2023-04-01T09:52:48;95091.47;;;7.99;100.00
65614;BME280;52283;49.292;10.572;2023-04-01T09:58:38;95103.59;;;8.25;100.00
65614;BME280;52283;49.292;10.572;2023-04-01T10:01:34;95084.81;;;8.07;100.00
65614;BME280;52283;49.292;10.572;2023-04-01T10:14:03;95078.25;;;8.35;100.00
65614;BME280;52283;49.292;10.572;2023-04-01T10:16:55;95096.16;;;8.39;100.00
65614;BME280;52283;49.292;10.572;2023-04-01T10:19:53;95080.00;;;8.32;100.00
65614;BME280;52283;49.292;10.572;2023-04-01T10:22:44;95085.56;;;8.38;100.00
65614;BME280;52283;49.292;10.572;2023-04-01T10:25:37;95080.91;;;8.46;100.00
65614;BME280;52283;49.292;10.572;2023-04-01T10:31:35;95085.31;;;8.06;100.00
65614;BME280;52283;49.292;10.572;2023-04-01T10:34:24;95091.09;;;8.13;100.00
65614;BME280;52283;49.292;10.572;2023-04-01T10:36:58;95090.84;;;8.11;100.00
65614;BME280;52283;49.292;10.572;2023-04-01T10:39:59;95085.53;;;8.13;100.00
65614;BME280;52283;49.292;10.572;2023-04-01T10:43:04;95089.22;;;8.21;100.00
65614;BME280;52283;49.292;10.572;2023-04-01T10:49:09;95086.44;;;8.21;100.00
65614;BME280;52283;49.292;10.572;2023-04-01T10:52:07;95086.31;;;8.33;100.00
65614;BME280;52283;49.292;10.572;2023-04-01T10:54:46;95079.34;;;8.50;100.00
65614;BME280;52283;49.292;10.572;2023-04-01T10:57:38;95080.56;;;8.55;100.00
65614;BME280;52283;49.292;10.572;2023-04-01T11:00:28;95091.25;;;8.21;100.00
65614;BME280;52283;49.292;10.572;2023-04-01T11:03:24;95091.84;;;8.14;100.00
65614;BME280;52283;49.292;10.572;2023-04-01T11:06:28;95085.56;;;8.32;100.00
65614;BME280;52283;49.292;10.572;2023-04-01T11:09:27;95083.47;;;8.44;100.00
65614;BME280;52283;49.292;10.572;2023-04-01T11:12:26;95092.31;;;8.67;100.00
65614;BME280;52283;49.292;10.572;2023-04-01T11:15:16;95085.84;;;8.34;100.00
65614;BME280;52283;49.292;10.572;2023-04-01T11:21:08;95084.50;;;8.41;100.00
65614;BME280;52283;49.292;10.572;2023-04-01T11:23:53;95086.22;;;8.19;100.00
65614;BME280;52283;49.292;10.572;2023-04-01T11:26:31;95094.09;;;8.15;100.00
65614;BME280;52283;49.292;10.572;2023-04-01T11:31:58;95083.31;;;8.06;100.00
65614;BME280;52283;49.292;10.572;2023-04-01T11:34:43;95093.00;;;8.24;100.00
65614;BME280;52283;49.292;10.572;2023-04-01T11:37:22;95087.56;;;8.13;100.00
65614;BME280;52283;49.292;10.572;2023-04-01T11:39:59;95085.09;;;8.04;100.00
65614;BME280;52283;49.292;10.572;2023-04-01T11:42:35;95077.88;;;8.19;100.00
65614;BME280;52283;49.292;10.572;2023-04-01T11:45:15;95094.56;;;8.19;100.00
65614;BME280;52283;49.292;10.572;2023-04-01T11:48:09;95087.19;;;8.22;100.00
65614;BME280;52283;49.292;10.572;2023-04-01T11:50:53;95098.72;;;8.37;100.00
65614;BME280;52283;49.292;10.572;2023-04-01T11:53:32;95091.25;;;8.21;100.00
65614;BME280;52283;49.292;10.572;2023-04-01T11:56:14;95107.66;;;8.24;100.00
65614;BME280;52283;49.292;10.572;2023-04-01T12:01:52;95109.78;;;8.43;100.00
65614;BME280;52283;49.292;10.572;2023-04-01T12:04:51;95105.63;;;8.25;100.00
65614;BME280;52283;49.292;10.572;2023-04-01T12:07:40;95109.75;;;8.18;100.00
65614;BME280;52283;49.292;10.572;2023-04-01T12:10:16;95104.41;;;8.20;100.00
65614;BME280;52283;49.292;10.572;2023-04-01T12:12:49;95108.59;;;8.38;100.00
65614;BME280;52283;49.292;10.572;2023-04-01T12:15:28;95100.81;;;8.25;100.00
65614;BME280;52283;49.292;10.572;2023-04-01T12:18:00;95110.44;;;8.24;100.00
65614;BME280;52283;49.292;10.572;2023-04-01T12:20:37;95107.00;;;8.67;100.00
65614;BME280;52283;49.292;10.572;2023-04-01T12:23:21;95107.53;;;8.41;100.00
65614;BME280;52283;49.292;10.572;2023-04-01T12:26:18;95108.13;;;8.29;100.00
65614;BME280;52283;49.292;10.572;2023-04-01T12:28:58;95103.53;;;8.37;100.00
65614;BME280;52283;49.292;10.572;2023-04-01T12:31:35;95108.22;;;8.72;100.00
65614;BME280;52283;49.292;10.572;2023-04-01T12:34:21;95113.50;;;8.75;100.00
65614;BME280;52283;49.292;10.572;2023-04-01T12:37:01;95111.00;;;8.72;100.00
65614;BME280;52283;49.292;10.572;2023-04-01T12:39:56;95101.91;;;8.47;100.00
65614;BME280;52283;49.292;10.572;2023-04-01T12:42:40;95109.72;;;8.73;100.00
65614;BME280;52283;49.292;10.572;2023-04-01T12:45:29;95114.78;;;8.50;100.00
65614;BME280;52283;49.292;10.572;2023-04-01T12:48:10;95127.63;;;8.59;100.00
65614;BME280;52283;49.292;10.572;2023-04-01T12:50:53;95113.09;;;8.66;100.00
65614;BME280;52283;49.292;10.572;2023-04-01T12:53:48;95108.91;;;8.53;100.00
65614;BME280;52283;49.292;10.572;2023-04-01T12:56:26;95125.34;;;8.57;100.00
65614;BME280;52283;49.292;10.572;2023-04-01T12:59:11;95129.34;;;8.62;100.00
65614;BME280;52283;49.292;10.572;2023-04-01T13:02:00;95124.53;;;8.62;100.00
65614;BME280;52283;49.292;10.572;2023-04-01T13:04:56;95122.72;;;8.65;100.00
65614;BME280;52283;49.292;10.572;2023-04-01T13:10:41;95114.66;;;8.85;100.00
65614;BME280;52283;49.292;10.572;2023-04-01T13:13:28;95130.78;;;8.68;100.00
65614;BME280;52283;49.292;10.572;2023-04-01T13:16:05;95129.22;;;8.48;100.00
65614;BME280;52283;49.292;10.572;2023-04-01T13:18:43;95138.75;;;8.59;100.00
65614;BME280;52283;49.292;10.572;2023-04-01T13:21:19;95137.88;;;8.69;100.00
65614;BME280;52283;49.292;10.572;2023-04-01T13:23:56;95141.00;;;8.60;100.00
65614;BME280;52283;49.292;10.572;2023-04-01T13:26:34;95129.69;;;8.77;100.00
65614;BME280;52283;49.292;10.572;2023-04-01T13:29:07;95130.22;;;8.94;100.00
65614;BME280;52283;49.292;10.572;2023-04-01T13:31:46;95141.06;;;8.79;100.00
65614;BME280;52283;49.292;10.572;2023-04-01T13:34:25;95140.97;;;9.09;100.00
65614;BME280;52283;49.292;10.572;2023-04-01T13:37:04;95148.19;;;8.99;100.00
65614;BME280;52283;49.292;10.572;2023-04-01T13:39:44;95138.03;;;9.01;100.00
65614;BME280;52283;49.292;10.572;2023-04-01T13:42:18;95134.03;;;9.15;100.00
65614;BME280;52283;49.292;10.572;2023-04-01T13:44:50;95133.13;;;9.07;100.00
65614;BME280;52283;49.292;10.572;2023-04-01T13:50:37;95143.97;;;9.11;100.00
65614;BME280;52283;49.292;10.572;2023-04-01T13:53:26;95147.13;;;9.02;100.00
65614;BME280;52283;49.292;10.572;2023-04-01T13:56:09;95161.88;;;8.97;100.00
65614;BME280;52283;49.292;10.572;2023-04-01T13:58:49;95142.81;;;8.82;100.00
65614;BME280;52283;49.292;10.572;2023-04-01T14:01:25;95158.88;;;9.13;100.00
65614;BME280;52283;49.292;10.572;2023-04-01T14:07:02;95128.66;;;8.80;100.00
65614;BME280;52283;49.292;10.572;2023-04-01T14:09:44;95148.19;;;8.99;100.00
65614;BME280;52283;49.292;10.572;2023-04-01T14:12:22;95138.66;;;8.89;100.00
65614;BME280;52283;49.292;10.572;2023-04-01T14:15:04;95144.22;;;8.89;100.00